Time;durP1;ratioP1;P1;durP2;ratioP2;P2;SDS_P1;SDS_P2;PMS_P1;PMS_P2;Temp;Humidity;BMP_temperature;BMP_pressure;BME280_temperature;BME280_humidity;BME280_pressure;Samples;Min_cycle;Max_cycle;Signal;HPM_P1;HPM_P2
2023/09/13 00:02:34;;;;;;;23.70;20.70;;;;;;;16.50;81.94;100172.20;107433;277;104684;-57
2023/09/13 00:05:26;;;;;;;23.60;21.20;;;;;;;16.48;82.04;100172.43;107479;277;113840;-57
2023/09/13 00:08:06;;;;;;;24.40;21.80;;;;;;;16.46;82.13;100165.92;107469;277;96883;-60
2023/09/13 00:10:47;;;;;;;23.60;21.20;;;;;;;16.46;82.22;100162.64;107481;277;98252;-59
2023/09/13 00:13:25;;;;;;;23.50;21.00;;;;;;;16.42;82.21;100160.66;107525;277;119518;-57
2023/09/13 00:15:59;;;;;;;22.60;20.50;;;;;;;16.39;82.45;100159.69;107482;277;106231;-58
2023/09/13 00:18:37;;;;;;;23.40;20.90;;;;;;;16.38;82.49;100154.96;107410;277;114797;-59
2023/09/13 00:21:14;;;;;;;24.70;22.00;;;;;;;16.37;82.60;100151.85;107479;277;95680;-58
2023/09/13 00:23:54;;;;;;;23.90;21.10;;;;;;;16.37;82.69;100150.05;107514;277;98237;-59
2023/09/13 00:26:34;;;;;;;23.90;21.30;;;;;;;16.36;82.67;100148.59;107500;277;122092;-59
2023/09/13 00:29:12;;;;;;;25.10;22.50;;;;;;;16.35;82.80;100150.86;107470;277;105574;-56
2023/09/13 00:31:54;;;;;;;24.10;21.60;;;;;;;16.32;82.85;100146.09;107400;277;114108;-56
2023/09/13 00:34:31;;;;;;;24.60;22.00;;;;;;;16.29;83.03;100141.27;107441;277;97331;-55
2023/09/13 00:37:06;;;;;;;25.80;23.00;;;;;;;16.29;83.03;100143.45;107465;277;97839;-54
2023/09/13 00:39:47;;;;;;;24.90;22.40;;;;;;;16.28;83.04;100146.81;107491;277;119810;-57
2023/09/13 00:45:53;;;;;;;27.30;24.20;;;;;;;16.29;83.40;100147.86;107937;275;113597;-57
2023/09/13 00:48:28;;;;;;;26.40;23.70;;;;;;;16.27;83.41;100141.55;108199;276;96522;-56
2023/09/13 00:51:09;;;;;;;26.10;23.50;;;;;;;16.25;83.48;100141.88;108094;275;97285;-57
2023/09/13 00:53:51;;;;;;;26.00;23.20;;;;;;;16.24;83.62;100139.99;108094;275;119875;-58
2023/09/13 00:56:26;;;;;;;26.20;23.40;;;;;;;16.24;83.69;100139.88;108096;275;104382;-56
2023/09/13 00:59:01;;;;;;;26.50;23.70;;;;;;;16.23;83.72;100138.98;108042;275;114043;-58
2023/09/13 01:01:38;;;;;;;26.10;23.30;;;;;;;16.21;83.74;100139.92;108032;275;95150;-55
2023/09/13 01:04:15;;;;;;;26.70;23.90;;;;;;;16.18;83.85;100140.89;108044;275;97257;-56
2023/09/13 01:06:52;;;;;;;24.80;22.30;;;;;;;16.18;83.91;100145.23;108063;275;118887;-54
2023/09/13 01:09:28;;;;;;;25.50;22.80;;;;;;;16.17;83.80;100142.09;108084;275;106169;-53
2023/09/13 01:12:05;;;;;;;26.80;23.40;;;;;;;16.16;84.03;100142.88;108096;275;114829;-58
2023/09/13 01:14:43;;;;;;;24.80;22.40;;;;;;;16.16;84.09;100149.64;108093;275;96170;-59
2023/09/13 01:17:30;;;;;;;24.50;21.90;;;;;;;16.12;84.01;100150.95;108104;275;96068;-58
2023/09/13 01:20:13;;;;;;;24.20;21.80;;;;;;;16.07;83.90;100150.86;108064;275;120573;-57
2023/09/13 01:23:33;;;;;;;23.90;21.50;;;;;;;16.03;84.13;100151.41;108079;275;106281;-57
2023/09/13 01:26:59;;;;;;;24.60;22.10;;;;;;;16.03;84.14;100155.48;108106;275;114495;-55
2023/09/13 01:29:39;;;;;;;24.00;21.60;;;;;;;16.01;84.17;100151.02;108090;275;95858;-55
2023/09/13 01:32:21;;;;;;;24.00;21.40;;;;;;;16.00;84.27;100153.98;108106;275;96680;-56
2023/09/13 01:35:03;;;;;;;26.00;21.80;;;;;;;16.00;84.35;100150.17;108071;275;118306;-57
2023/09/13 01:37:45;;;;;;;25.60;22.80;;;;;;;15.98;84.45;100153.17;108115;275;104960;-56
2023/09/13 01:40:18;;;;;;;23.30;21.10;;;;;;;15.98;84.38;100151.58;108059;275;114311;-55
2023/09/13 01:42:57;;;;;;;23.30;20.90;;;;;;;15.94;84.42;100154.22;108096;275;95682;-54
2023/09/13 01:45:37;;;;;;;23.50;20.90;;;;;;;15.90;84.31;100152.64;108080;275;98601;-54
2023/09/13 01:48:23;;;;;;;24.10;21.60;;;;;;;15.85;84.33;100151.35;108053;275;117827;-53
2023/09/13 01:51:15;;;;;;;22.30;20.00;;;;;;;15.81;84.21;100146.52;108016;275;105830;-58
2023/09/13 01:54:21;;;;;;;23.10;20.60;;;;;;;15.77;84.22;100146.01;107922;275;115053;-58
2023/09/13 01:57:24;;;;;;;22.90;20.50;;;;;;;15.74;84.55;100148.41;108107;275;95952;-56
2023/09/13 02:00:00;;;;;;;23.70;21.20;;;;;;;15.71;84.64;100147.58;108102;275;98092;-56
2023/09/13 02:02:53;;;;;;;23.30;21.00;;;;;;;15.67;84.62;100148.11;107999;275;118199;-58
2023/09/13 02:05:29;;;;;;;23.80;21.30;;;;;;;15.64;84.61;100152.38;108009;275;105327;-57
2023/09/13 02:08:06;;;;;;;23.50;21.10;;;;;;;15.62;84.72;100153.89;108024;275;113753;-57
2023/09/13 02:10:44;;;;;;;24.20;21.70;;;;;;;15.59;84.70;100150.44;108029;275;96112;-55
2023/09/13 02:13:29;;;;;;;23.70;20.90;;;;;;;15.56;84.87;100147.17;108020;275;96637;-56
2023/09/13 02:16:11;;;;;;;25.00;21.50;;;;;;;15.54;85.07;100147.23;108024;275;119124;-57
2023/09/13 02:18:44;;;;;;;23.10;20.60;;;;;;;15.54;85.03;100145.44;108042;275;106744;-58
2023/09/13 02:21:23;;;;;;;25.30;22.80;;;;;;;15.54;85.30;100147.06;108030;275;114321;-59
2023/09/13 02:24:00;;;;;;;25.70;23.00;;;;;;;15.53;85.40;100147.71;107997;275;97119;-59
2023/09/13 02:26:40;;;;;;;25.30;22.70;;;;;;;15.52;85.42;100145.05;108029;275;97384;-54
2023/09/13 02:29:18;;;;;;;25.80;22.80;;;;;;;15.53;85.43;100149.55;108019;275;119276;-55
2023/09/13 02:31:53;;;;;;;25.30;22.70;;;;;;;15.50;85.30;100146.61;108020;275;106196;-55
2023/09/13 02:34:25;;;;;;;;;;;;;;;15.44;85.41;100147.58;107975;275;113606;-55
2023/09/13 02:37:00;;;;;;;24.40;21.90;;;;;;;15.36;85.45;100140.80;107947;275;94725;-56
2023/09/13 02:39:38;;;;;;;25.10;22.40;;;;;;;15.32;85.62;100139.84;107984;275;98067;-56
2023/09/13 02:42:10;;;;;;;25.50;22.90;;;;;;;15.30;85.66;100144.91;107966;275;119106;-55
2023/09/13 02:44:48;;;;;;;26.00;23.20;;;;;;;15.30;85.84;100143.48;107585;275;106532;-55
2023/09/13 02:47:19;;;;;;;25.90;23.20;;;;;;;15.31;85.82;100146.30;107999;275;114780;-58
2023/09/13 02:49:58;;;;;;;28.30;25.40;;;;;;;15.30;85.90;100144.91;107943;275;95297;-58
2023/09/13 02:52:39;;;;;;;28.80;25.60;;;;;;;15.31;86.01;100143.02;107692;275;96300;-54
2023/09/13 02:55:14;;;;;;;28.30;25.20;;;;;;;15.31;85.94;100144.52;107992;275;119117;-54
2023/09/13 02:57:48;;;;;;;26.90;24.30;;;;;;;15.31;86.11;100143.19;107961;275;106605;-59
2023/09/13 03:00:23;;;;;;;;;;;;;;;15.31;86.32;100140.22;107950;275;113742;-55
2023/09/13 03:02:58;;;;;;;;;;;;;;;15.29;86.53;100143.59;107989;275;96504;-55
2023/09/13 03:05:36;;;;;;;28.40;25.40;;;;;;;15.30;86.59;100145.29;107994;275;96310;-55
2023/09/13 03:08:15;;;;;;;30.90;26.70;;;;;;;15.31;86.63;100150.56;107988;275;119995;-55
2023/09/13 03:10:54;;;;;;;28.40;25.30;;;;;;;15.33;86.78;100148.15;107925;272;105030;-59
2023/09/13 03:13:29;;;;;;;28.60;25.60;;;;;;;15.34;86.69;100145.09;107680;275;113987;-59
2023/09/13 03:16:11;;;;;;;29.10;25.30;;;;;;;15.35;86.69;100142.23;107464;276;96674;-58
2023/09/13 03:18:51;;;;;;;27.80;25.10;;;;;;;15.34;86.61;100137.75;107504;276;97213;-58
2023/09/13 03:21:30;;;;;;;29.40;26.30;;;;;;;15.33;86.77;100139.11;107532;276;118943;-56
2023/09/13 03:24:06;;;;;;;27.00;24.00;;;;;;;15.30;86.88;100139.55;107499;276;103813;-57
2023/09/13 03:26:39;;;;;;;28.30;24.90;;;;;;;15.27;86.86;100141.65;107490;276;114645;-57
2023/09/13 03:29:24;;;;;;;27.10;24.30;;;;;;;15.23;86.79;100140.21;107497;276;97499;-57
2023/09/13 03:31:57;;;;;;;28.40;25.50;;;;;;;15.19;86.81;100141.36;107525;276;98086;-56
2023/09/13 03:34:39;;;;;;;28.00;25.10;;;;;;;15.17;86.76;100135.14;107513;276;118975;-55
2023/09/13 03:37:17;;;;;;;28.00;25.00;;;;;;;15.16;86.86;100132.45;107528;276;106021;-56
2023/09/13 03:40:05;;;;;;;27.80;25.10;;;;;;;15.14;86.96;100128.98;107438;276;113362;-57
2023/09/13 03:42:52;;;;;;;29.60;25.60;;;;;;;15.13;87.11;100126.61;107509;276;96460;-58
2023/09/13 03:45:31;;;;;;;29.50;26.40;;;;;;;15.14;87.31;100126.46;107545;276;97852;-58
2023/09/13 03:48:08;;;;;;;27.50;24.80;;;;;;;15.12;87.32;100126.02;107574;276;119425;-58
2023/09/13 03:54:12;;;;;;;27.90;25.10;;;;;;;15.10;87.32;100120.66;107753;274;113031;-58
2023/09/13 03:56:51;;;;;;;28.60;25.80;;;;;;;15.08;87.39;100124.03;107301;275;634408;-56
2023/09/13 03:59:25;;;;;;;28.20;25.30;;;;;;;15.06;87.53;100127.51;107812;275;97065;-58
2023/09/13 04:02:05;;;;;;;27.10;24.30;;;;;;;15.05;87.63;100124.14;107916;275;118343;-58
2023/09/13 04:04:43;;;;;;;28.30;25.30;;;;;;;15.03;87.55;100122.94;107988;275;105891;-54
2023/09/13 04:07:23;;;;;;;27.80;25.00;;;;;;;15.03;87.57;100122.94;107929;275;114280;-55
2023/09/13 04:09:55;;;;;;;28.90;26.00;;;;;;;15.05;87.72;100124.60;107965;272;95059;-53
2023/09/13 04:12:36;;;;;;;28.90;26.00;;;;;;;15.08;87.72;100126.44;107574;276;98430;-53
2023/09/13 04:15:10;;;;;;;27.90;24.80;;;;;;;15.11;87.94;100122.80;107681;276;119418;-57
2023/09/13 04:17:50;;;;;;;27.80;24.90;;;;;;;15.16;87.85;100127.65;107640;276;106002;-56
2023/09/13 04:20:26;;;;;;;28.80;25.90;;;;;;;15.20;87.83;100129.80;107668;276;114535;-55
2023/09/13 04:23:06;;;;;;;29.20;26.20;;;;;;;15.23;87.89;100133.40;107732;276;96223;-57
2023/09/13 04:25:48;;;;;;;27.80;25.00;;;;;;;15.22;88.09;100130.02;107670;276;98393;-57
2023/09/13 04:28:32;;;;;;;29.30;25.20;;;;;;;15.24;88.01;100127.81;107682;276;120116;-54
2023/09/13 04:31:11;;;;;;;28.00;25.00;;;;;;;15.29;88.09;100128.05;107589;276;105664;-53
2023/09/13 04:33:54;;;;;;;29.50;26.30;;;;;;;15.33;87.75;100124.80;107660;276;114207;-58
2023/09/13 04:36:33;;;;;;;26.40;23.70;;;;;;;15.36;87.96;100123.23;107629;276;97037;-58
2023/09/13 04:39:10;;;;;;;27.40;24.60;;;;;;;15.38;87.76;100119.08;107653;276;98340;-56
2023/09/13 04:41:41;;;;;;;25.50;23.00;;;;;;;15.42;87.86;100124.14;107723;276;120057;-56
2023/09/13 04:44:26;;;;;;;28.50;25.60;;;;;;;15.47;87.84;100123.61;107659;276;105226;-58
2023/09/13 04:47:01;;;;;;;28.90;25.20;;;;;;;15.54;88.14;100121.80;107653;276;112713;-57
2023/09/13 04:49:41;;;;;;;28.90;26.00;;;;;;;15.61;88.03;100118.20;107686;276;95654;-58
2023/09/13 04:52:18;;;;;;;27.60;24.70;;;;;;;15.71;88.20;100118.04;107710;276;98223;-59
2023/09/13 04:54:53;;;;;;;27.00;24.30;;;;;;;15.78;88.11;100122.45;107659;276;119911;-56
2023/09/13 04:57:39;;;;;;;28.30;24.70;;;;;;;15.91;88.02;100125.09;107624;276;105291;-55
2023/09/13 05:00:14;;;;;;;28.70;25.90;;;;;;;16.05;88.24;100119.53;107654;276;114350;-53
2023/09/13 05:02:51;;;;;;;27.30;24.40;;;;;;;16.14;88.24;100121.33;107669;276;96858;-54
2023/09/13 05:05:31;;;;;;;25.70;23.10;;;;;;;16.24;88.26;100119.02;107647;276;98162;-54
2023/09/13 05:08:07;;;;;;;26.70;23.50;;;;;;;16.35;88.20;100119.79;107677;276;120121;-58
2023/09/13 05:10:43;;;;;;;27.80;24.80;;;;;;;16.48;88.24;100115.86;107762;276;105684;-59
2023/09/13 05:13:20;;;;;;;27.30;24.50;;;;;;;16.66;88.30;100107.36;107610;276;113746;-59
2023/09/13 05:15:59;;;;;;;27.80;25.00;;;;;;;16.94;88.26;100116.42;107668;276;98323;-59
2023/09/13 05:18:36;;;;;;;27.80;24.90;;;;;;;17.74;88.00;100119.77;107708;276;97859;-59
2023/09/13 05:21:13;;;;;;;25.90;23.30;;;;;;;18.89;86.83;100115.01;107722;276;119917;-59
2023/09/13 05:23:48;;;;;;;24.10;21.70;;;;;;;19.69;85.57;100116.87;107708;276;105929;-55
2023/09/13 05:26:21;;;;;;;25.10;22.60;;;;;;;19.81;84.28;100120.04;107735;276;114650;-56
2023/09/13 05:28:54;;;;;;;26.60;23.70;;;;;;;19.85;83.45;100117.30;107756;276;95007;-59
2023/09/13 05:31:32;;;;;;;27.90;24.80;;;;;;;19.85;82.99;100122.17;107768;276;95656;-59
2023/09/13 05:34:08;;;;;;;29.50;26.50;;;;;;;19.59;82.82;100121.02;107754;276;119256;-60
2023/09/13 05:36:50;;;;;;;28.60;24.50;;;;;;;19.42;82.82;100121.96;107755;276;104218;-59
2023/09/13 05:39:30;;;;;;;27.40;24.50;;;;;;;19.36;82.78;100120.98;107683;276;113315;-58
2023/09/13 05:42:06;;;;;;;27.60;24.90;;;;;;;19.30;82.88;100120.23;107485;277;96380;-59
2023/09/13 05:44:36;;;;;;;;;;;;;;;19.31;83.01;100116.48;107707;276;96923;-55
2023/09/13 05:47:08;;;;;;;27.00;23.70;;;;;;;19.36;82.99;100115.88;107611;276;120320;-55
2023/09/13 05:49:43;;;;;;;26.60;23.70;;;;;;;19.66;83.09;100119.97;107735;276;105002;-58
2023/09/13 05:52:24;;;;;;;26.10;23.40;;;;;;;21.03;82.92;100118.22;107723;276;114184;-59
2023/09/13 05:54:59;;;;;;;25.00;22.50;;;;;;;22.81;81.89;100115.29;107655;276;96039;-55
2023/09/13 05:57:31;;;;;;;23.80;21.50;;;;;;;24.20;80.06;100113.10;107667;276;96471;-54
2023/09/13 06:00:14;;;;;;;23.60;21.40;;;;;;;25.44;78.03;100105.08;107682;276;119273;-58
2023/09/13 06:02:53;;;;;;;23.90;21.60;;;;;;;26.60;76.04;100099.08;107686;276;104656;-54
2023/09/13 06:05:28;;;;;;;23.10;20.80;;;;;;;27.61;73.71;100098.77;107704;276;114868;-54
2023/09/13 06:08:02;;;;;;;;;;;;;;;28.35;71.69;100102.80;107700;276;94147;-56
2023/09/13 06:10:36;;;;;;;21.80;19.90;;;;;;;28.05;69.41;100108.32;107691;276;98067;-56
2023/09/13 06:13:17;;;;;;;22.90;20.60;;;;;;;27.01;68.35;100107.45;107675;276;118880;-57
2023/09/13 06:15:51;;;;;;;23.40;21.00;;;;;;;26.37;67.10;100103.48;107726;276;104590;-57
2023/09/13 06:18:28;;;;;;;22.20;20.00;;;;;;;25.60;66.92;100102.09;107729;276;114455;-55
2023/09/13 06:21:13;;;;;;;20.50;18.70;;;;;;;24.95;67.48;100112.45;107674;276;95069;-55
2023/09/13 06:23:46;;;;;;;21.40;19.10;;;;;;;24.40;67.96;100115.34;107731;276;97780;-61
2023/09/13 06:26:18;;;;;;;21.30;19.20;;;;;;;23.95;68.49;100117.88;107683;276;120227;-59
2023/09/13 06:28:49;;;;;;;21.70;19.60;;;;;;;23.63;69.01;100116.33;107677;276;104722;-59
2023/09/13 06:31:29;;;;;;;20.60;18.70;;;;;;;23.48;69.40;100115.77;107642;276;113963;-59
2023/09/13 06:34:01;;;;;;;21.70;19.50;;;;;;;23.45;69.81;100117.09;107666;276;94616;-58
2023/09/13 06:36:36;;;;;;;22.00;19.80;;;;;;;23.33;69.99;100120.14;107490;276;99890;-59
2023/09/13 06:39:14;;;;;;;21.30;19.20;;;;;;;23.36;70.20;100122.99;107635;276;118799;-55
2023/09/13 06:41:49;;;;;;;22.30;20.10;;;;;;;23.28;70.45;100125.17;107656;276;105182;-59
2023/09/13 06:44:28;;;;;;;20.80;18.70;;;;;;;23.24;70.69;100121.83;107667;276;114139;-57
2023/09/13 06:47:05;;;;;;;19.50;17.60;;;;;;;23.29;71.03;100121.30;107472;277;94126;-58
2023/09/13 06:49:46;;;;;;;19.80;17.70;;;;;;;23.35;70.78;100119.52;107510;276;97435;-55
2023/09/13 06:52:20;;;;;;;19.30;17.40;;;;;;;23.46;70.63;100123.16;107526;276;120206;-55
2023/09/13 06:54:56;;;;;;;19.20;17.30;;;;;;;23.64;70.56;100122.55;107705;276;105738;-57
2023/09/13 06:57:30;;;;;;;19.10;16.90;;;;;;;23.69;70.20;100122.52;107701;276;114881;-58
2023/09/13 07:00:08;;;;;;;17.90;16.00;;;;;;;23.77;69.95;100123.66;107645;276;93975;-60
2023/09/13 07:02:41;;;;;;;20.80;17.20;;;;;;;24.05;69.50;100129.66;107504;276;97636;-58
2023/09/13 07:05:18;;;;;;;17.00;15.30;;;;;;;24.23;69.19;100128.02;107730;276;118496;-60
2023/09/13 07:07:56;;;;;;;19.60;17.70;;;;;;;24.33;69.14;100124.30;107717;276;105460;-58
2023/09/13 07:10:33;;;;;;;18.80;16.80;;;;;;;24.42;68.54;100124.09;107644;276;114128;-58
2023/09/13 07:13:10;;;;;;;18.30;16.40;;;;;;;24.49;67.97;100124.25;107684;276;94620;-56
2023/09/13 07:15:43;;;;;;;18.30;16.40;;;;;;;24.60;67.83;100125.11;107685;276;97492;-56
2023/09/13 07:18:24;;;;;;;22.50;16.00;;;;;;;24.72;67.94;100121.92;107736;276;119615;-60
2023/09/13 07:21:03;;;;;;;19.20;17.00;;;;;;;24.87;67.46;100117.30;107714;272;105892;-60
2023/09/13 07:23:38;;;;;;;18.50;15.70;;;;;;;25.04;67.30;100121.48;107551;276;114232;-59
2023/09/13 07:26:12;;;;;;;16.40;14.70;;;;;;;25.11;66.74;100122.98;107708;276;93363;-59
2023/09/13 07:28:45;;;;;;;16.90;13.90;;;;;;;25.21;66.14;100115.36;107788;276;97018;-55
2023/09/13 07:31:21;;;;;;;16.20;14.60;;;;;;;25.31;65.86;100111.05;107690;276;119642;-55
2023/09/13 07:33:56;;;;;;;15.30;13.70;;;;;;;25.41;65.64;100115.81;107741;276;104833;-60
2023/09/13 07:36:32;;;;;;;18.90;14.50;;;;;;;25.51;65.63;100116.94;107579;276;113363;-60
2023/09/13 07:39:09;;;;;;;16.10;14.50;;;;;;;25.58;65.16;100117.85;107712;276;94160;-60
2023/09/13 07:41:42;;;;;;;17.50;14.80;;;;;;;25.66;64.59;100119.08;107686;276;96135;-60
2023/09/13 07:44:17;;;;;;;15.60;12.30;;;;;;;25.77;64.27;100120.60;107619;276;118742;-55
2023/09/13 07:46:57;;;;;;;14.30;12.80;;;;;;;25.96;63.44;100123.12;107637;276;105641;-55
2023/09/13 07:49:38;;;;;;;13.90;12.40;;;;;;;26.30;62.67;100124.11;107511;276;116473;-59
2023/09/13 07:52:22;;;;;;;15.60;12.50;;;;;;;26.61;62.56;100129.23;107558;276;94441;-59
2023/09/13 07:55:03;;;;;;;13.50;12.20;;;;;;;27.25;63.13;100124.70;107703;276;98334;-61
2023/09/13 07:57:42;;;;;;;15.10;12.90;;;;;;;27.85;62.12;100129.20;107673;276;119717;-61
2023/09/13 08:00:28;;;;;;;13.90;12.50;;;;;;;29.24;61.76;100127.10;107697;276;104605;-59
2023/09/13 08:03:01;;;;;;;15.60;12.70;;;;;;;30.98;59.48;100123.56;107660;276;114920;-61
2023/09/13 08:05:35;;;;;;;15.10;12.10;;;;;;;32.23;57.25;100124.35;107682;276;93647;-62
2023/09/13 08:08:22;;;;;;;13.60;11.80;;;;;;;33.31;55.16;100119.38;107721;276;98936;-62
2023/09/13 08:11:06;;;;;;;12.80;11.50;;;;;;;34.29;52.54;100116.39;107718;276;118312;-62
2023/09/13 08:13:43;;;;;;;;;;;;;;;35.08;51.06;100111.42;107737;276;103109;-60
2023/09/13 08:16:16;;;;;;;14.00;12.40;;;;;;;35.75;49.19;100113.07;107660;276;114744;-60
2023/09/13 08:18:52;;;;;;;13.00;11.50;;;;;;;36.21;47.97;100116.35;107714;276;93043;-57
2023/09/13 08:21:35;;;;;;;12.80;11.40;;;;;;;36.65;46.43;100120.34;107684;276;98279;-57
2023/09/13 08:24:17;;;;;;;12.10;10.80;;;;;;;37.02;44.89;100124.08;107696;276;118873;-55
2023/09/13 08:26:54;;;;;;;12.00;10.80;;;;;;;36.81;43.25;100123.55;107661;276;105960;-53
2023/09/13 08:29:37;;;;;;;13.90;11.50;;;;;;;36.13;41.96;100124.92;107645;276;115169;-60
2023/09/13 08:32:17;;;;;;;12.60;11.30;;;;;;;35.62;42.19;100125.52;107661;276;92961;-60
2023/09/13 08:34:51;;;;;;;13.80;12.10;;;;;;;35.57;41.76;100124.66;107668;276;97998;-58
2023/09/13 08:37:23;;;;;;;13.00;11.70;;;;;;;35.61;41.14;100126.94;107693;276;118536;-57
2023/09/13 08:40:04;;;;;;;13.00;11.50;;;;;;;36.05;41.20;100122.97;107701;276;106342;-61
2023/09/13 08:42:39;;;;;;;12.40;11.10;;;;;;;36.58;40.70;100122.98;107635;276;114352;-60
2023/09/13 08:45:14;;;;;;;11.50;10.50;;;;;;;36.86;39.77;100122.77;107679;276;95514;-57
2023/09/13 08:47:59;;;;;;;15.70;10.90;;;;;;;37.04;39.19;100122.77;107681;276;96963;-60
2023/09/13 08:50:34;;;;;;;16.20;11.20;;;;;;;37.30;38.60;100117.58;107674;276;119732;-61
2023/09/13 08:53:08;;;;;;;12.30;10.40;;;;;;;37.39;37.78;100117.69;107712;276;106121;-60
2023/09/13 08:55:43;;;;;;;12.00;10.50;;;;;;;37.41;37.33;100112.26;107710;276;113512;-60
2023/09/13 08:58:28;;;;;;;14.00;10.70;;;;;;;37.13;36.87;100108.98;107712;276;93772;-55
2023/09/13 09:01:10;;;;;;;11.30;10.20;;;;;;;36.67;36.94;100109.90;107544;276;96851;-56
2023/09/13 09:03:52;;;;;;;11.80;10.60;;;;;;;36.15;37.23;100109.23;107771;276;118753;-61
2023/09/13 09:06:27;;;;;;;10.70;9.50;;;;;;;35.92;37.18;100101.03;107707;276;107104;-61
2023/09/13 09:09:04;;;;;;;10.70;9.60;;;;;;;35.59;37.18;100103.84;107679;276;113278;-55
2023/09/13 09:11:44;;;;;;;11.60;10.10;;;;;;;35.49;37.52;100106.95;107666;276;94032;-56
2023/09/13 09:14:20;;;;;;;12.00;10.80;;;;;;;35.38;37.70;100103.69;107658;276;97345;-63
2023/09/13 09:16:57;;;;;;;13.60;10.70;;;;;;;35.40;38.14;100104.28;107595;276;119522;-61
2023/09/13 09:19:30;;;;;;;11.50;10.40;;;;;;;35.43;38.18;100105.98;107683;276;105874;-56
2023/09/13 09:22:05;;;;;;;12.80;10.40;;;;;;;35.39;38.04;100105.95;107430;277;114794;-55
2023/09/13 09:24:40;;;;;;;10.40;9.50;;;;;;;35.40;37.66;100102.14;107468;277;93779;-60
2023/09/13 09:27:17;;;;;;;11.10;10.00;;;;;;;35.61;37.85;100102.20;107683;276;97846;-60
2023/09/13 09:30:03;;;;;;;11.10;9.90;;;;;;;35.65;37.57;100097.98;107684;276;120470;-59
2023/09/13 09:32:37;;;;;;;10.90;9.80;;;;;;;35.58;37.15;100095.60;107651;276;104579;-57
2023/09/13 09:35:14;;;;;;;14.70;10.70;;;;;;;35.35;36.94;100095.98;107518;276;115830;-55
2023/09/13 09:37:46;;;;;;;12.30;10.10;;;;;;;35.03;36.62;100091.08;107707;276;94317;-58
2023/09/13 09:40:22;;;;;;;11.10;10.00;;;;;;;34.68;36.78;100086.02;107715;276;97969;-56
2023/09/13 09:43:04;;;;;;;11.70;10.10;;;;;;;34.38;36.96;100085.98;107765;276;119226;-57
2023/09/13 09:45:39;;;;;;;11.40;9.40;;;;;;;33.96;36.99;100083.86;107714;276;104928;-56
2023/09/13 09:48:13;;;;;;;10.90;9.70;;;;;;;33.48;37.48;100084.44;107725;276;115289;-58
2023/09/13 09:50:50;;;;;;;;;;;;;;;33.24;37.51;100085.02;107756;276;93937;-58
2023/09/13 09:53:25;;;;;;;10.70;9.70;;;;;;;32.83;37.31;100083.66;107665;276;97666;-59
2023/09/13 09:56:02;;;;;;;13.30;9.70;;;;;;;32.41;37.43;100081.27;107674;276;120249;-58
2023/09/13 09:58:37;;;;;;;10.60;9.60;;;;;;;32.25;38.06;100078.89;107685;276;106062;-58
2023/09/13 10:01:12;;;;;;;11.30;10.10;;;;;;;32.11;38.04;100079.21;107701;276;115743;-59
2023/09/13 10:04:07;;;;;;;11.10;10.00;;;;;;;32.00;37.92;100075.50;107729;276;93705;-60
2023/09/13 10:06:59;;;;;;;13.60;10.20;;;;;;;31.92;38.49;100072.84;107691;276;97389;-59
2023/09/13 10:09:49;;;;;;;12.30;10.60;;;;;;;31.83;38.75;100078.40;107661;276;118345;-57
2023/09/13 10:12:26;;;;;;;11.70;10.20;;;;;;;31.76;39.57;100073.19;107652;276;106866;-55
2023/09/13 10:15:06;;;;;;;11.10;9.70;;;;;;;31.76;39.32;100071.23;107673;276;114758;-53
2023/09/13 10:17:56;;;;;;;13.20;9.50;;;;;;;31.62;38.96;100065.98;107687;276;93233;-55
2023/09/13 10:20:34;;;;;;;11.60;9.30;;;;;;;31.64;39.36;100066.71;107704;276;95865;-58
2023/09/13 10:23:11;;;;;;;10.70;9.70;;;;;;;31.65;39.58;100060.66;107665;276;118914;-55
2023/09/13 10:25:49;;;;;;;10.00;9.10;;;;;;;31.65;38.88;100055.14;107525;276;105785;-55
2023/09/13 10:28:35;;;;;;;13.40;10.00;;;;;;;31.67;38.90;100049.11;107730;276;111518;-59
2023/09/13 10:31:18;;;;;;;12.00;9.00;;;;;;;31.67;38.75;100053.72;107498;276;95951;-60
2023/09/13 10:34:05;;;;;;;9.80;8.90;;;;;;;31.59;38.63;100054.12;107763;276;97811;-54
2023/09/13 10:36:52;;;;;;;10.20;9.00;;;;;;;31.42;38.99;100051.22;107730;276;117363;-54
2023/09/13 10:39:30;;;;;;;11.10;9.40;;;;;;;31.40;38.98;100052.60;107691;276;104963;-56
2023/09/13 10:42:07;;;;;;;11.10;10.00;;;;;;;31.39;38.93;100055.80;107677;276;114850;-54
2023/09/13 10:44:41;;;;;;;11.20;10.10;;;;;;;31.43;38.84;100051.61;107656;276;94635;-57
2023/09/13 10:47:18;;;;;;;10.90;9.30;;;;;;;31.41;39.13;100047.52;107675;276;98377;-56
2023/09/13 10:49:54;;;;;;;10.40;9.50;;;;;;;31.28;38.62;100049.78;107547;276;121109;-59
2023/09/13 10:52:32;;;;;;;11.30;10.20;;;;;;;31.09;38.63;100052.78;107736;276;105287;-60
2023/09/13 10:55:09;;;;;;;10.40;9.50;;;;;;;31.01;38.94;100051.10;107631;276;114248;-57
2023/09/13 10:57:44;;;;;;;10.70;9.70;;;;;;;30.90;39.77;100050.30;107668;276;94438;-58
2023/09/13 11:00:17;;;;;;;11.20;9.70;;;;;;;30.77;39.77;100047.79;107704;276;97835;-54
2023/09/13 11:02:56;;;;;;;11.30;10.10;;;;;;;30.70;39.34;100043.27;107541;276;120901;-56
2023/09/13 11:05:33;;;;;;;10.80;9.80;;;;;;;30.77;39.45;100042.08;107682;276;104929;-57
2023/09/13 11:08:14;;;;;;;11.20;9.60;;;;;;;30.82;39.30;100042.42;107671;276;113930;-55
2023/09/13 11:10:56;;;;;;;10.70;9.60;;;;;;;30.89;39.54;100040.34;107484;276;95287;-54
2023/09/13 11:13:40;;;;;;;11.40;9.30;;;;;;;30.88;39.46;100037.75;107749;276;96305;-56
2023/09/13 11:16:16;;;;;;;14.80;10.80;;;;;;;30.90;39.64;100033.60;107672;276;118397;-57
2023/09/13 11:18:52;;;;;;;11.60;10.50;;;;;;;30.94;39.41;100033.92;107713;276;104379;-57
2023/09/13 11:21:47;;;;;;;11.40;10.20;;;;;;;30.98;39.14;100033.25;107682;276;114320;-57
2023/09/13 11:24:38;;;;;;;10.70;9.50;;;;;;;31.01;38.86;100029.40;107703;276;93486;-54
2023/09/13 11:27:32;;;;;;;10.40;9.40;;;;;;;30.90;38.35;100032.20;107694;276;97043;-54
2023/09/13 11:30:09;;;;;;;10.40;8.90;;;;;;;30.78;38.77;100034.06;107662;276;119285;-56
2023/09/13 11:32:47;;;;;;;;;;;;;;;30.66;39.25;100037.11;107654;276;104901;-56
2023/09/13 11:35:28;;;;;;;11.00;9.60;;;;;;;30.59;39.37;100038.38;107673;276;114692;-55
2023/09/13 11:38:00;;;;;;;11.30;10.20;;;;;;;30.57;39.29;100039.39;107611;276;93745;-55
2023/09/13 11:40:33;;;;;;;11.10;10.00;;;;;;;30.54;39.28;100039.34;107717;276;98410;-53
2023/09/13 11:43:11;;;;;;;11.30;10.10;;;;;;;30.55;39.21;100037.83;107682;276;119598;-58
2023/09/13 11:45:55;;;;;;;12.60;9.90;;;;;;;30.50;39.46;100041.14;107654;276;105532;-57
2023/09/13 11:48:41;;;;;;;10.50;9.40;;;;;;;30.43;39.77;100039.74;107603;276;114463;-56
2023/09/13 11:51:17;;;;;;;11.20;10.10;;;;;;;30.36;40.04;100037.40;107670;276;95479;-57
2023/09/13 11:53:58;;;;;;;10.40;9.40;;;;;;;30.41;39.89;100039.64;107698;276;98191;-60
2023/09/13 11:56:38;;;;;;;;;;;;;;;30.44;39.95;100038.73;107210;276;704490;-60
2023/09/13 11:59:12;;;;;;;10.60;9.60;;;;;;;30.47;39.77;100035.54;107646;276;105276;-56
2023/09/13 12:01:55;;;;;;;11.10;10.10;;;;;;;30.49;39.54;100036.80;107676;276;113249;-56
2023/09/13 12:04:29;;;;;;;10.90;9.80;;;;;;;30.41;39.52;100035.24;107685;276;92938;-58
2023/09/13 12:07:03;;;;;;;;;;;;;;;30.30;40.32;100035.62;107709;276;97763;-59
2023/09/13 12:09:37;;;;;;;11.10;10.00;;;;;;;30.16;40.13;100038.15;107732;276;119117;-59